Time;durP1;ratioP1;P1;durP2;ratioP2;P2;SDS_P1;SDS_P2;PMS_P1;PMS_P2;Temp;Humidity;BMP_temperature;BMP_pressure;BME280_temperature;BME280_humidity;BME280_pressure;Samples;Min_cycle;Max_cycle;Signal;HPM_P1;HPM_P2
2021/12/08 00:00:45;;;;;;;12.82;5.68;;;2.40;99.90;;;;;;5072501;28;20052;-79
2021/12/08 00:03:14;;;;;;;14.35;5.28;;;2.40;99.90;;;;;;5072770;28;20069;-78
2021/12/08 00:05:42;;;;;;;14.15;5.63;;;2.40;99.90;;;;;;5072196;28;20020;-78
2021/12/08 00:08:11;;;;;;;17.52;5.38;;;2.40;99.90;;;;;;5072470;28;20021;-78
2021/12/08 00:13:09;;;;;;;14.80;5.80;;;2.40;99.90;;;;;;5072082;28;20471;-78
2021/12/08 00:15:41;;;;;;;15.10;6.22;;;2.40;99.90;;;;;;5072195;28;20025;-78
2021/12/08 00:18:10;;;;;;;12.65;6.20;;;2.40;99.90;;;;;;5074469;28;20085;-78
2021/12/08 00:20:37;;;;;;;14.20;6.32;;;2.40;99.90;;;;;;5056457;28;20088;-78
2021/12/08 00:23:04;;;;;;;13.93;5.55;;;2.30;99.90;;;;;;5056389;28;20102;-78
2021/12/08 00:25:30;;;;;;;17.45;5.72;;;2.40;99.90;;;;;;5060310;28;20032;-78
2021/12/08 00:27:58;;;;;;;12.13;5.07;;;2.30;99.90;;;;;;5074927;28;20020;-78
2021/12/08 00:30:23;;;;;;;13.55;5.82;;;2.40;99.90;;;;;;5075988;28;20522;-79
2021/12/08 00:32:54;;;;;;;13.35;5.68;;;2.30;99.90;;;;;;5076202;28;20033;-78
2021/12/08 00:35:20;;;;;;;21.23;6.28;;;2.30;99.90;;;;;;5075929;28;20025;-78
2021/12/08 00:37:46;;;;;;;18.13;6.30;;;2.30;99.90;;;;;;5075879;28;20532;-79
2021/12/08 00:40:16;;;;;;;12.48;6.13;;;2.30;99.90;;;;;;5075748;28;20058;-78
2021/12/08 00:42:43;;;;;;;9.98;5.75;;;2.30;99.90;;;;;;5075612;28;20111;-79
2021/12/08 00:45:11;;;;;;;16.55;5.78;;;2.20;99.90;;;;;;5075883;28;20020;-78
2021/12/08 00:47:36;;;;;;;20.83;6.72;;;2.30;99.90;;;;;;5075740;28;20020;-79
2021/12/08 00:50:05;;;;;;;14.02;5.93;;;2.20;99.90;;;;;;5075770;28;20373;-78
2021/12/08 00:52:31;;;;;;;12.52;6.28;;;2.20;99.90;;;;;;5075375;28;20033;-79
2021/12/08 00:54:57;;;;;;;15.52;6.35;;;2.20;99.90;;;;;;5075500;28;20078;-78
2021/12/08 00:57:24;;;;;;;12.25;5.80;;;2.20;99.90;;;;;;5075046;28;21714;-78
2021/12/08 00:59:50;;;;;;;18.50;6.85;;;2.20;99.90;;;;;;5074241;28;20029;-79
2021/12/08 01:02:16;;;;;;;16.88;6.93;;;2.20;99.90;;;;;;5075021;28;20013;-79
2021/12/08 01:04:42;;;;;;;16.48;6.00;;;2.20;99.90;;;;;;5075431;28;20033;-79
2021/12/08 01:07:07;;;;;;;23.50;8.77;;;2.30;99.90;;;;;;5075492;28;20024;-78
2021/12/08 01:09:34;;;;;;;19.65;6.93;;;2.30;99.90;;;;;;5075335;28;20040;-78
2021/12/08 01:12:02;;;;;;;16.63;7.35;;;2.30;99.90;;;;;;5075133;28;20021;-79
2021/12/08 01:14:34;;;;;;;14.73;6.60;;;2.30;99.90;;;;;;5075509;28;20021;-79
2021/12/08 01:17:04;;;;;;;18.75;7.57;;;2.30;99.90;;;;;;5075180;28;20024;-79
2021/12/08 01:19:30;;;;;;;21.95;8.02;;;2.30;99.90;;;;;;5073976;28;20017;-78
2021/12/08 01:21:56;;;;;;;19.55;8.27;;;2.30;99.90;;;;;;5074935;28;20021;-78
2021/12/08 01:24:21;;;;;;;15.35;7.72;;;2.30;99.90;;;;;;5075159;28;20036;-78
2021/12/08 01:26:48;;;;;;;16.90;8.32;;;2.30;99.90;;;;;;5074477;28;20033;-78
2021/12/08 01:29:14;;;;;;;18.35;8.57;;;2.30;99.90;;;;;;5074273;28;20118;-78
2021/12/08 01:31:43;;;;;;;18.17;8.73;;;2.30;99.90;;;;;;5075134;28;20033;-78
2021/12/08 01:34:10;;;;;;;28.55;9.57;;;2.30;99.90;;;;;;5075107;28;20017;-78
2021/12/08 01:36:37;;;;;;;26.40;8.98;;;2.30;99.90;;;;;;5073434;28;20124;-79
2021/12/08 01:39:07;;;;;;;19.33;8.48;;;2.30;99.90;;;;;;5074737;28;20024;-79
2021/12/08 01:41:35;;;;;;;17.40;7.75;;;2.30;99.90;;;;;;5074183;28;20025;-78
2021/12/08 01:46:50;;;;;;;15.25;9.27;;;2.30;99.90;;;;;;5074545;28;20028;-78
2021/12/08 01:49:16;;;;;;;26.55;9.55;;;2.20;99.90;;;;;;5088414;28;20494;-78
2021/12/08 01:51:42;;;;;;;15.60;8.73;;;2.30;99.90;;;;;;5093823;28;20043;-78
2021/12/08 01:54:08;;;;;;;24.35;9.20;;;2.30;99.90;;;;;;5075833;28;20441;-78
2021/12/08 01:56:35;;;;;;;19.30;10.07;;;2.30;99.90;;;;;;5073929;28;20123;-78
2021/12/08 01:59:06;;;;;;;21.65;8.82;;;2.30;99.90;;;;;;5074477;28;20033;-78
2021/12/08 02:01:34;;;;;;;24.40;9.02;;;2.30;99.90;;;;;;5074165;28;20063;-78
2021/12/08 02:04:04;;;;;;;26.10;9.55;;;2.30;99.90;;;;;;5074547;28;20024;-78
2021/12/08 02:06:31;;;;;;;20.23;9.13;;;2.20;99.90;;;;;;5074249;28;20025;-78
2021/12/08 02:08:56;;;;;;;21.70;8.43;;;2.30;99.90;;;;;;5074388;28;20035;-78
2021/12/08 02:11:22;;;;;;;23.58;9.40;;;2.20;99.90;;;;;;5073867;28;20392;-79
2021/12/08 02:13:51;;;;;;;19.25;10.13;;;2.20;99.90;;;;;;5074387;28;20077;-78
2021/12/08 02:16:17;;;;;;;22.42;8.95;;;2.20;99.90;;;;;;5073993;28;20021;-78
2021/12/08 02:18:48;;;;;;;17.30;8.55;;;2.20;99.90;;;;;;5074094;28;20472;-78
2021/12/08 02:21:25;;;;;;;20.75;8.75;;;2.20;99.90;;;;;;5073881;28;20028;-78
2021/12/08 02:23:52;;;;;;;18.20;8.80;;;2.20;99.90;;;;;;5073421;28;20104;-78
2021/12/08 02:26:18;;;;;;;21.92;9.13;;;2.20;99.90;;;;;;5073906;28;20032;-78
2021/12/08 02:28:44;;;;;;;19.92;7.93;;;2.20;99.90;;;;;;5073897;28;20480;-78
2021/12/08 02:31:13;;;;;;;24.27;10.73;;;2.20;99.90;;;;;;5073676;28;20028;-78
2021/12/08 02:50:06;;;;;;;20.42;7.65;;;2.30;99.90;;;;;;5073766;28;20111;-78
2021/12/08 02:52:32;;;;;;;19.83;8.15;;;2.30;99.90;;;;;;5072119;28;20488;-78
2021/12/08 02:55:04;;;;;;;23.10;7.68;;;2.30;99.90;;;;;;5073425;28;20032;-78
2021/12/08 02:57:29;;;;;;;15.05;7.18;;;2.30;99.90;;;;;;5072736;28;20044;-78
2021/12/08 02:59:55;;;;;;;22.10;8.13;;;2.30;99.90;;;;;;5073022;28;20032;-78
2021/12/08 03:02:20;;;;;;;15.23;7.65;;;2.30;99.90;;;;;;5073314;28;20346;-78
2021/12/08 03:04:47;;;;;;;14.93;7.45;;;2.30;99.90;;;;;;5073034;28;20028;-78
2021/12/08 03:07:13;;;;;;;13.63;6.80;;;2.30;99.90;;;;;;5072989;28;20039;-78
2021/12/08 03:09:38;;;;;;;17.73;6.75;;;2.30;99.90;;;;;;5073253;28;20032;-78
2021/12/08 03:12:05;;;;;;;12.65;6.53;;;2.30;99.90;;;;;;5072540;28;20028;-78
2021/12/08 03:14:30;;;;;;;13.52;5.97;;;2.30;99.90;;;;;;5073103;28;20024;-78
2021/12/08 03:17:07;;;;;;;14.05;5.72;;;2.30;99.90;;;;;;5071241;28;20161;-78
2021/12/08 03:19:32;;;;;;;19.02;5.60;;;2.30;99.90;;;;;;5072831;28;20067;-78
2021/12/08 03:22:02;;;;;;;20.58;6.75;;;2.30;99.90;;;;;;5072581;28;20063;-78
2021/12/08 03:24:32;;;;;;;8.55;5.53;;;2.30;99.90;;;;;;5072995;28;20112;-78
2021/12/08 03:29:37;;;;;;;23.10;6.30;;;2.30;99.90;;;;;;5072487;28;20046;-78
2021/12/08 03:32:05;;;;;;;12.48;6.43;;;2.30;99.90;;;;;;5072493;28;20111;-78
2021/12/08 03:34:35;;;;;;;12.77;5.65;;;2.30;99.90;;;;;;5072688;28;20400;-78
2021/12/08 03:37:02;;;;;;;18.77;7.13;;;2.30;99.90;;;;;;5071376;28;20033;-78
2021/12/08 03:39:29;;;;;;;16.20;6.00;;;2.30;99.90;;;;;;5071464;28;20017;-78
2021/12/08 03:41:55;;;;;;;19.63;6.90;;;2.30;99.90;;;;;;5061666;28;20107;-78
2021/12/08 03:44:21;;;;;;;16.63;5.57;;;2.30;99.90;;;;;;5072782;28;20150;-78
2021/12/08 03:46:46;;;;;;;10.48;5.47;;;2.30;99.90;;;;;;5068837;28;20507;-78
2021/12/08 03:49:16;;;;;;;16.55;6.40;;;2.30;99.90;;;;;;5071254;28;20036;-78
2021/12/08 03:51:42;;;;;;;16.05;6.13;;;2.30;99.90;;;;;;5072131;28;20032;-77
2021/12/08 03:54:10;;;;;;;15.93;6.63;;;2.30;99.90;;;;;;5071930;28;20026;-78
2021/12/08 03:56:37;;;;;;;12.65;5.70;;;2.30;99.90;;;;;;5071611;28;20144;-78
2021/12/08 03:59:05;;;;;;;15.68;6.55;;;2.30;99.90;;;;;;5071100;28;20039;-78
2021/12/08 04:01:33;;;;;;;15.82;6.72;;;2.30;99.90;;;;;;5072541;28;20064;-78
2021/12/08 04:04:04;;;;;;;18.73;6.15;;;2.30;99.90;;;;;;5072399;28;20036;-77
2021/12/08 04:06:40;;;;;;;11.35;6.03;;;2.30;99.90;;;;;;5072402;28;20020;-78
2021/12/08 04:09:16;;;;;;;18.02;7.35;;;2.30;99.90;;;;;;5071876;28;20424;-77
2021/12/08 04:11:41;;;;;;;21.67;6.53;;;2.30;99.90;;;;;;5090116;28;20077;-78
2021/12/08 04:14:12;;;;;;;13.95;6.28;;;2.30;99.90;;;;;;5071388;28;20032;-77
2021/12/08 04:16:45;;;;;;;14.70;6.25;;;2.30;99.90;;;;;;5072047;28;20025;-78
2021/12/08 04:19:11;;;;;;;14.95;6.70;;;2.30;99.90;;;;;;5071811;28;20039;-77
2021/12/08 04:21:38;;;;;;;15.05;6.38;;;2.30;99.90;;;;;;5070980;28;20021;-78
2021/12/08 04:24:05;;;;;;;13.82;5.72;;;2.30;99.90;;;;;;5072339;28;20054;-77
2021/12/08 04:26:35;;;;;;;13.50;6.20;;;2.30;99.90;;;;;;5072173;28;20107;-77
2021/12/08 04:29:02;;;;;;;11.77;6.05;;;2.30;99.90;;;;;;5072191;28;20021;-78
2021/12/08 04:31:32;;;;;;;19.08;6.10;;;2.30;99.90;;;;;;5071858;28;20481;-77
2021/12/08 04:34:03;;;;;;;10.88;5.68;;;2.30;99.90;;;;;;5072242;28;20392;-77
2021/12/08 04:36:43;;;;;;;15.02;5.75;;;2.40;99.90;;;;;;5072129;28;20028;-78
2021/12/08 04:39:16;;;;;;;16.95;6.03;;;2.40;99.90;;;;;;5070850;28;20583;-78
2021/12/08 04:41:48;;;;;;;15.70;6.00;;;2.30;99.90;;;;;;5080189;28;20107;-77
2021/12/08 04:47:01;;;;;;;11.40;5.55;;;2.40;99.90;;;;;;5075999;28;20032;-77
2021/12/08 04:50:10;;;;;;;21.63;6.25;;;2.40;99.90;;;;;;5072041;28;20070;-77
2021/12/08 04:52:44;;;;;;;12.57;5.60;;;2.40;99.90;;;;;;5070985;28;20068;-77
2021/12/08 05:01:21;;;;;;;10.15;4.97;;;2.40;99.90;;;;;;5072018;28;20086;-77
2021/12/08 05:06:42;;;;;;;15.85;4.97;;;2.40;99.90;;;;;;5074392;28;20047;-77
2021/12/08 05:09:13;;;;;;;9.70;5.15;;;2.40;99.90;;;;;;5075573;28;20039;-77
2021/12/08 05:11:46;;;;;;;13.63;5.40;;;2.50;99.90;;;;;;5074875;28;20073;-78
2021/12/08 05:14:22;;;;;;;12.25;4.28;;;2.50;99.90;;;;;;5074669;28;20020;-77
2021/12/08 05:16:54;;;;;;;14.18;4.70;;;2.40;99.90;;;;;;5071652;28;20036;-77
2021/12/08 05:19:24;;;;;;;9.55;4.50;;;2.50;99.90;;;;;;5073321;28;20031;-77
2021/12/08 05:21:56;;;;;;;10.95;4.63;;;2.40;99.90;;;;;;5073969;28;20024;-77
2021/12/08 05:24:31;;;;;;;10.73;6.40;;;2.50;99.90;;;;;;5075280;28;20070;-77
2021/12/08 05:27:14;;;;;;;9.80;4.28;;;2.50;99.90;;;;;;5074555;28;20020;-77
2021/12/08 05:29:48;;;;;;;12.48;4.75;;;2.50;99.90;;;;;;5074639;28;20115;-76
2021/12/08 05:32:15;;;;;;;13.52;4.57;;;2.50;99.90;;;;;;5084666;28;20047;-78
2021/12/08 05:34:41;;;;;;;12.60;4.93;;;2.50;99.90;;;;;;5075481;28;20024;-78
2021/12/08 05:37:09;;;;;;;13.05;5.32;;;2.40;99.90;;;;;;5073485;28;20365;-77
2021/12/08 05:39:36;;;;;;;9.45;5.78;;;2.40;99.90;;;;;;5074836;28;20107;-78
2021/12/08 05:42:11;;;;;;;9.90;4.88;;;2.30;99.90;;;;;;5073417;28;20026;-77
2021/12/08 05:44:39;;;;;;;34.38;8.63;;;2.20;99.90;;;;;;5074528;28;20039;-78
2021/12/08 05:47:11;;;;;;;10.48;5.68;;;2.20;99.90;;;;;;5073070;28;20020;-77
2021/12/08 05:49:37;;;;;;;14.90;5.85;;;2.20;99.90;;;;;;5075024;28;20554;-77
2021/12/08 05:52:04;;;;;;;13.35;6.65;;;2.10;99.90;;;;;;5081407;28;20025;-77
2021/12/08 05:54:33;;;;;;;21.30;6.57;;;2.00;99.90;;;;;;5080567;28;20060;-77
2021/12/08 05:57:07;;;;;;;17.73;6.43;;;2.00;99.90;;;;;;5074113;28;20056;-77
2021/12/08 05:59:34;;;;;;;11.63;5.43;;;2.00;99.90;;;;;;5085530;28;20086;-77
2021/12/08 06:02:13;;;;;;;14.35;6.50;;;2.00;99.90;;;;;;5075501;28;20480;-77
2021/12/08 06:04:39;;;;;;;13.00;6.05;;;1.90;99.90;;;;;;5073024;28;20044;-77
2021/12/08 06:07:07;;;;;;;10.00;5.72;;;1.90;99.90;;;;;;5074361;28;20100;-78
2021/12/08 06:09:34;;;;;;;15.32;5.90;;;1.80;99.90;;;;;;5076424;28;20545;-77
2021/12/08 06:12:01;;;;;;;12.27;5.43;;;1.90;99.90;;;;;;5074511;28;20027;-78
2021/12/08 06:14:32;;;;;;;11.10;5.75;;;1.70;99.90;;;;;;5072508;28;20396;-77
2021/12/08 06:17:09;;;;;;;11.98;5.20;;;1.80;99.90;;;;;;5073576;28;20025;-77
2021/12/08 06:19:36;;;;;;;13.15;5.28;;;1.80;99.90;;;;;;5080564;28;20032;-77
2021/12/08 06:22:05;;;;;;;13.65;5.68;;;1.90;99.90;;;;;;5075315;28;20499;-77
2021/12/08 06:24:30;;;;;;;8.98;5.40;;;1.80;99.90;;;;;;5078867;28;20358;-77
2021/12/08 06:26:56;;;;;;;10.88;5.78;;;1.90;99.90;;;;;;5090426;28;20024;-77
2021/12/08 06:29:23;;;;;;;18.52;6.03;;;1.80;99.90;;;;;;5075788;28;20036;-76
2021/12/08 06:31:52;;;;;;;17.58;6.53;;;1.80;99.90;;;;;;5086477;28;20438;-77
2021/12/08 06:34:18;;;;;;;16.00;6.35;;;1.80;99.90;;;;;;5074092;28;20119;-77
2021/12/08 06:37:02;;;;;;;14.15;6.00;;;1.90;99.90;;;;;;5073587;28;20040;-77
2021/12/08 06:39:37;;;;;;;10.65;5.78;;;1.90;99.90;;;;;;5072482;28;20492;-77
2021/12/08 06:42:17;;;;;;;13.15;4.90;;;1.80;99.90;;;;;;5073125;28;20028;-77
2021/12/08 06:44:46;;;;;;;14.88;5.30;;;1.90;99.90;;;;;;5073821;28;20017;-77
2021/12/08 06:47:20;;;;;;;9.05;5.18;;;1.90;99.90;;;;;;5073541;28;20032;-77
2021/12/08 06:49:49;;;;;;;11.52;5.32;;;1.80;99.90;;;;;;5072414;28;20028;-77
2021/12/08 06:52:23;;;;;;;12.93;5.47;;;1.90;99.90;;;;;;5073533;28;20035;-78
2021/12/08 06:55:03;;;;;;;12.65;4.93;;;1.90;99.90;;;;;;5073390;28;20048;-78
2021/12/08 06:57:37;;;;;;;8.90;5.03;;;1.90;99.90;;;;;;5072858;28;20051;-78
2021/12/08 07:00:38;;;;;;;11.50;4.75;;;1.90;99.90;;;;;;5073157;28;20025;-78
2021/12/08 07:03:21;;;;;;;8.07;5.07;;;1.90;99.90;;;;;;5073017;28;20040;-78
2021/12/08 07:08:22;;;;;;;7.93;4.28;;;2.00;99.90;;;;;;5073347;28;20465;-77
2021/12/08 07:10:51;;;;;;;7.55;4.53;;;1.90;99.90;;;;;;5073018;28;20028;-77
2021/12/08 07:13:22;;;;;;;8.45;3.90;;;2.00;99.90;;;;;;5073130;28;20070;-77
2021/12/08 07:15:57;;;;;;;8.57;4.68;;;2.00;99.90;;;;;;5073170;28;20104;-77
2021/12/08 07:18:40;;;;;;;5.82;4.22;;;2.00;99.90;;;;;;5073094;28;20021;-77
2021/12/08 07:21:10;;;;;;;9.60;4.65;;;2.00;99.90;;;;;;5072833;28;20027;-78
2021/12/08 07:23:46;;;;;;;9.50;4.45;;;2.10;99.90;;;;;;5072962;28;20012;-77
2021/12/08 07:26:20;;;;;;;5.82;3.47;;;2.10;99.90;;;;;;5072211;28;20021;-77
2021/12/08 07:28:48;;;;;;;8.52;4.65;;;2.10;99.90;;;;;;5072908;28;20428;-77
2021/12/08 07:31:24;;;;;;;7.35;4.00;;;2.10;99.90;;;;;;5072752;28;20113;-78
2021/12/08 07:33:50;;;;;;;6.05;4.15;;;2.10;99.90;;;;;;5072823;28;20024;-77
2021/12/08 07:36:18;;;;;;;6.88;3.60;;;2.10;99.90;;;;;;5072783;28;20060;-77
2021/12/08 07:38:47;;;;;;;4.70;4.05;;;2.20;99.90;;;;;;5071790;28;20052;-78
2021/12/08 07:41:29;;;;;;;10.00;4.30;;;2.10;99.90;;;;;;5072477;28;20353;-78
2021/12/08 07:43:57;;;;;;;3.95;3.47;;;2.20;99.90;;;;;;5072845;28;20017;-78
2021/12/08 07:46:31;;;;;;;9.82;4.18;;;2.20;99.90;;;;;;5072809;28;20391;-78
2021/12/08 07:49:02;;;;;;;8.30;4.35;;;2.20;99.90;;;;;;5072656;28;20085;-78
2021/12/08 07:51:37;;;;;;;5.95;4.28;;;2.20;99.90;;;;;;5072592;28;20040;-78
2021/12/08 07:54:04;;;;;;;9.85;4.93;;;2.20;99.90;;;;;;5072747;28;20042;-78
2021/12/08 07:56:32;;;;;;;12.13;6.22;;;2.20;99.90;;;;;;5072028;28;20045;-78
2021/12/08 07:59:10;;;;;;;8.48;5.03;;;2.30;99.90;;;;;;5072695;28;20028;-78
2021/12/08 08:01:41;;;;;;;9.60;4.63;;;2.30;99.90;;;;;;5072472;28;20025;-78
2021/12/08 08:04:10;;;;;;;10.82;5.70;;;2.30;99.90;;;;;;5071328;28;20091;-78
2021/12/08 08:06:39;;;;;;;13.45;4.90;;;2.30;99.90;;;;;;5072481;28;20032;-78
2021/12/08 08:09:14;;;;;;;10.30;5.18;;;2.40;99.90;;;;;;5072256;28;20025;-78
2021/12/08 08:11:43;;;;;;;11.23;5.15;;;2.30;99.90;;;;;;5070837;28;20112;-79
2021/12/08 08:14:12;;;;;;;6.88;4.75;;;2.40;99.90;;;;;;5072644;28;20028;-78
2021/12/08 08:16:41;;;;;;;11.13;5.00;;;2.40;99.90;;;;;;5072622;28;20036;-78
2021/12/08 08:19:12;;;;;;;8.60;4.57;;;2.40;99.90;;;;;;5072476;28;20023;-78
2021/12/08 08:21:42;;;;;;;7.80;4.47;;;2.30;99.90;;;;;;5072482;28;20024;-79
2021/12/08 08:24:09;;;;;;;14.38;4.80;;;2.40;99.90;;;;;;5072459;28;20027;-78
2021/12/08 08:26:35;;;;;;;11.45;4.53;;;2.40;99.90;;;;;;5070730;28;20031;-79
2021/12/08 08:29:02;;;;;;;9.75;4.88;;;2.40;99.90;;;;;;5072424;28;20028;-79
2021/12/08 08:31:36;;;;;;;17.05;5.03;;;2.30;99.90;;;;;;5072235;28;20024;-79
2021/12/08 08:34:04;;;;;;;9.25;5.18;;;2.30;99.90;;;;;;5072241;28;20031;-79
2021/12/08 08:36:34;;;;;;;8.43;4.72;;;2.30;99.90;;;;;;5072250;28;20040;-79
2021/12/08 08:39:08;;;;;;;9.85;4.70;;;2.40;99.90;;;;;;5074063;28;20017;-78
2021/12/08 08:41:44;;;;;;;5.40;4.13;;;2.40;99.90;;;;;;5075575;28;20017;-79
2021/12/08 08:44:36;;;;;;;8.93;4.57;;;2.40;99.90;;;;;;5075902;28;20077;-78
2021/12/08 08:47:08;;;;;;;15.40;4.85;;;2.40;99.90;;;;;;5075899;28;20111;-79
2021/12/08 08:49:36;;;;;;;5.93;4.30;;;2.40;99.90;;;;;;5075845;28;20021;-79
2021/12/08 08:52:27;;;;;;;7.30;3.97;;;2.40;99.90;;;;;;5075789;28;20056;-79
2021/12/08 08:54:56;;;;;;;9.43;4.60;;;2.30;99.90;;;;;;5075473;28;20392;-79
2021/12/08 08:57:34;;;;;;;7.00;4.00;;;2.40;99.90;;;;;;5075532;28;20033;-79
2021/12/08 09:00:31;;;;;;;9.27;4.40;;;2.40;99.90;;;;;;5075770;28;20054;-78
2021/12/08 09:03:03;;;;;;;6.82;4.82;;;2.40;99.90;;;;;;5057725;28;20028;-78
2021/12/08 09:05:34;;;;;;;16.17;4.53;;;2.30;99.90;;;;;;5075799;28;20056;-78
2021/12/08 09:08:03;;;;;;;9.95;4.70;;;2.40;99.90;;;;;;5075524;28;20418;-78
2021/12/08 09:10:41;;;;;;;7.90;4.28;;;2.40;99.90;;;;;;5075260;28;20526;-78
2021/12/08 09:13:18;;;;;;;7.32;4.60;;;2.40;99.90;;;;;;5075360;28;20028;-79
2021/12/08 09:15:49;;;;;;;10.10;4.50;;;2.40;99.90;;;;;;5075425;28;20095;-79
2021/12/08 09:18:24;;;;;;;8.75;4.90;;;2.40;99.90;;;;;;5075375;28;20030;-78
2021/12/08 09:21:08;;;;;;;7.55;4.25;;;2.40;99.90;;;;;;5075504;28;20388;-78
2021/12/08 09:23:49;;;;;;;8.55;4.85;;;2.40;99.90;;;;;;5075195;28;20029;-78
2021/12/08 09:26:19;;;;;;;7.28;4.72;;;2.40;99.90;;;;;;5073677;28;20059;-79
2021/12/08 09:28:58;;;;;;;11.85;5.80;;;2.40;99.90;;;;;;5075336;28;20472;-78
2021/12/08 09:31:32;;;;;;;9.02;4.85;;;2.40;99.90;;;;;;5075170;28;20368;-79
2021/12/08 09:34:04;;;;;;;11.25;4.53;;;2.40;99.90;;;;;;5074003;28;20040;-79
2021/12/08 09:36:41;;;;;;;10.93;4.97;;;2.40;99.90;;;;;;5073964;28;20025;-78
2021/12/08 09:39:14;;;;;;;6.25;4.07;;;2.50;99.90;;;;;;5075113;28;20033;-79
2021/12/08 09:41:45;;;;;;;8.02;4.25;;;2.50;99.90;;;;;;5074535;28;20377;-78
2021/12/08 09:44:24;;;;;;;16.95;5.35;;;2.50;99.90;;;;;;5074932;28;20025;-79
2021/12/08 09:46:51;;;;;;;18.38;5.43;;;2.50;99.90;;;;;;5075060;28;20357;-79
2021/12/08 09:49:19;;;;;;;12.85;4.35;;;2.50;99.90;;;;;;5074573;28;20037;-78
2021/12/08 09:51:46;;;;;;;6.97;3.83;;;2.60;99.90;;;;;;5074848;28;20373;-78
2021/12/08 09:54:11;;;;;;;8.90;4.40;;;2.60;99.90;;;;;;5074618;28;20075;-79
2021/12/08 09:56:39;;;;;;;9.35;4.35;;;2.60;99.90;;;;;;5074219;28;20079;-78
2021/12/08 09:59:07;;;;;;;7.53;4.70;;;2.60;99.90;;;;;;5074634;28;20155;-79
2021/12/08 10:01:33;;;;;;;9.63;4.20;;;2.60;99.90;;;;;;5074363;28;20020;-78
2021/12/08 10:04:00;;;;;;;6.97;4.38;;;2.60;99.90;;;;;;5073420;28;20016;-79
2021/12/08 10:06:27;;;;;;;6.40;3.80;;;2.60;99.90;;;;;;5084076;28;20028;-78
2021/12/08 10:08:58;;;;;;;8.00;3.95;;;2.60;99.90;;;;;;5085966;28;20028;-78
2021/12/08 10:11:26;;;;;;;15.13;4.38;;;2.60;99.90;;;;;;5072626;28;20030;-78
2021/12/08 10:13:52;;;;;;;11.57;4.22;;;2.60;99.90;;;;;;5080526;28;20038;-79
2021/12/08 10:16:20;;;;;;;9.48;3.90;;;2.70;99.90;;;;;;5077942;28;20483;-79
2021/12/08 10:18:46;;;;;;;6.32;3.83;;;2.70;99.90;;;;;;5077686;28;20161;-79
2021/12/08 10:21:13;;;;;;;6.35;3.20;;;2.70;99.90;;;;;;5079913;28;20063;-79
2021/12/08 10:23:42;;;;;;;9.80;4.38;;;2.70;99.90;;;;;;5081288;28;20021;-79
2021/12/08 10:26:14;;;;;;;8.35;4.10;;;2.70;99.90;;;;;;5073412;28;20031;-79
2021/12/08 10:28:44;;;;;;;9.32;3.53;;;2.70;99.90;;;;;;5072766;28;20043;-79
2021/12/08 10:31:26;;;;;;;6.45;3.72;;;2.70;99.90;;;;;;5074746;28;20029;-78
2021/12/08 10:34:05;;;;;;;7.68;3.60;;;2.70;99.90;;;;;;5075316;28;20025;-79
2021/12/08 10:36:45;;;;;;;9.13;3.60;;;2.70;99.90;;;;;;5073795;28;20111;-78
2021/12/08 10:39:16;;;;;;;5.15;3.65;;;2.80;99.90;;;;;;5073447;28;20020;-78
2021/12/08 10:41:50;;;;;;;13.30;4.15;;;2.80;99.90;;;;;;5072776;28;20024;-78
2021/12/08 10:44:44;;;;;;;4.55;3.35;;;2.80;99.90;;;;;;5073882;28;20472;-78
2021/12/08 10:47:11;;;;;;;6.00;3.80;;;2.80;99.90;;;;;;5073715;28;20032;-79
2021/12/08 10:55:17;;;;;;;7.38;3.75;;;2.90;99.90;;;;;;5078152;28;20074;-79
2021/12/08 10:57:47;;;;;;;6.88;3.38;;;2.90;99.90;;;;;;5075482;28;20024;-78
2021/12/08 11:00:37;;;;;;;11.73;4.18;;;2.90;99.90;;;;;;5086293;28;20353;-78
2021/12/08 11:03:05;;;;;;;13.02;4.43;;;3.00;99.90;;;;;;5093111;28;20095;-78
2021/12/08 11:05:41;;;;;;;9.95;4.30;;;3.10;99.90;;;;;;5091871;28;20543;-79
2021/12/08 11:08:10;;;;;;;9.75;4.13;;;3.10;99.90;;;;;;5093353;28;20028;-79
2021/12/08 11:10:39;;;;;;;12.32;4.20;;;3.10;99.90;;;;;;5089607;28;20035;-79
2021/12/08 11:13:07;;;;;;;11.77;4.07;;;3.20;99.90;;;;;;5084098;28;20024;-79
2021/12/08 11:15:35;;;;;;;10.65;4.10;;;3.10;99.90;;;;;;5093170;28;20028;-78
2021/12/08 11:18:07;;;;;;;7.20;3.50;;;3.10;99.90;;;;;;5080365;28;20020;-78
2021/12/08 11:20:34;;;;;;;7.93;3.85;;;3.10;99.90;;;;;;5073017;28;20074;-79
2021/12/08 11:23:05;;;;;;;6.90;3.75;;;3.20;99.90;;;;;;5076875;28;20387;-78
2021/12/08 11:25:40;;;;;;;10.52;4.47;;;3.20;99.90;;;;;;5092748;28;20016;-79
2021/12/08 11:28:21;;;;;;;7.40;3.88;;;3.20;99.90;;;;;;5077114;28;20031;-78
2021/12/08 11:30:51;;;;;;;9.20;4.13;;;3.10;99.90;;;;;;5091075;28;20054;-78
2021/12/08 11:33:23;;;;;;;8.02;4.50;;;3.20;99.90;;;;;;5072046;28;20553;-78
2021/12/08 11:36:12;;;;;;;8.90;3.95;;;3.20;99.90;;;;;;5078040;28;20107;-79
2021/12/08 11:38:38;;;;;;;8.20;4.72;;;3.20;99.90;;;;;;5071702;28;20019;-78
2021/12/08 11:41:10;;;;;;;11.20;3.90;;;3.20;99.90;;;;;;5079537;28;20028;-79
2021/12/08 11:43:36;;;;;;;12.88;5.30;;;3.30;99.90;;;;;;5071324;28;20079;-78
2021/12/08 11:46:17;;;;;;;14.10;5.22;;;3.20;99.90;;;;;;5072250;28;20036;-78
2021/12/08 11:49:18;;;;;;;10.90;4.30;;;3.20;99.90;;;;;;5066642;28;20036;-78
2021/12/08 11:51:44;;;;;;;6.25;4.78;;;3.30;99.90;;;;;;5088701;28;20035;-78
2021/12/08 11:54:22;;;;;;;11.10;4.03;;;3.30;99.90;;;;;;5078647;28;20530;-78
2021/12/08 11:56:48;;;;;;;8.20;3.70;;;3.30;99.90;;;;;;5080893;28;20040;-78
2021/12/08 11:59:14;;;;;;;9.88;4.63;;;3.30;99.90;;;;;;5072566;28;20380;-78
2021/12/08 12:01:40;;;;;;;9.68;4.22;;;3.40;99.90;;;;;;5074223;28;20046;-78
2021/12/08 12:04:09;;;;;;;11.90;4.45;;;3.40;99.90;;;;;;5072256;28;20060;-78
2021/12/08 12:06:35;;;;;;;9.10;4.20;;;3.40;99.90;;;;;;5072172;28;20060;-78
2021/12/08 12:09:05;;;;;;;6.68;4.18;;;3.40;99.90;;;;;;5071297;28;20035;-79
2021/12/08 12:11:30;;;;;;;9.30;4.10;;;3.40;99.90;;;;;;5071652;28;20503;-79
2021/12/08 12:13:58;;;;;;;10.88;4.75;;;3.40;99.90;;;;;;5089582;28;20056;-79
2021/12/08 12:16:25;;;;;;;8.27;3.78;;;3.40;99.90;;;;;;5077828;28;20131;-78
2021/12/08 12:18:56;;;;;;;11.43;3.92;;;3.50;99.90;;;;;;5078097;28;20099;-78
2021/12/08 12:21:41;;;;;;;9.35;4.18;;;3.50;99.90;;;;;;5086007;28;20024;-78
2021/12/08 12:24:27;;;;;;;8.57;4.32;;;3.40;99.90;;;;;;5076368;28;20120;-78
2021/12/08 12:27:22;;;;;;;8.18;4.13;;;3.40;99.90;;;;;;5094022;28;20492;-79
2021/12/08 12:29:53;;;;;;;8.03;3.70;;;3.40;99.90;;;;;;5086089;28;20473;-78
2021/12/08 12:32:45;;;;;;;11.35;4.22;;;3.50;99.90;;;;;;5080727;28;20282;-79
2021/12/08 12:35:17;;;;;;;5.82;3.38;;;3.50;99.90;;;;;;5094081;28;20484;-80
2021/12/08 12:37:45;;;;;;;5.55;3.70;;;3.50;99.90;;;;;;5075633;28;20070;-80
2021/12/08 12:40:17;;;;;;;6.15;3.92;;;3.50;99.90;;;;;;5075795;28;20021;-79
2021/12/08 12:42:59;;;;;;;6.80;4.00;;;3.50;99.90;;;;;;5075864;28;20384;-79
2021/12/08 12:45:35;;;;;;;7.00;4.05;;;3.50;99.90;;;;;;5074747;28;20361;-80
2021/12/08 12:48:17;;;;;;;6.45;4.63;;;3.50;99.90;;;;;;5075883;28;20028;-79
2021/12/08 12:51:00;;;;;;;11.77;4.82;;;3.50;99.90;;;;;;5074335;28;20112;-80
2021/12/08 12:53:54;;;;;;;10.05;4.40;;;3.50;99.90;;;;;;5075557;28;20025;-80
2021/12/08 12:56:41;;;;;;;8.10;4.72;;;3.50;99.90;;;;;;5075135;28;20369;-80
2021/12/08 12:59:14;;;;;;;8.77;4.72;;;3.50;99.90;;;;;;5075370;28;20032;-79
2021/12/08 13:01:46;;;;;;;6.53;4.32;;;3.50;99.90;;;;;;5074985;28;20020;-80
2021/12/08 13:04:23;;;;;;;13.05;4.00;;;3.50;99.90;;;;;;5077138;28;20659;-79
2021/12/08 13:06:50;;;;;;;9.35;4.20;;;3.50;99.90;;;;;;5077592;28;20399;-79
2021/12/08 13:09:39;;;;;;;7.93;4.10;;;3.60;99.90;;;;;;5076284;28;20094;-78
2021/12/08 13:12:09;;;;;;;12.02;4.43;;;3.50;99.90;;;;;;5073566;28;20029;-79
2021/12/08 13:14:35;;;;;;;7.85;4.30;;;3.50;99.90;;;;;;5079735;28;20028;-79
2021/12/08 13:17:24;;;;;;;7.10;3.75;;;3.50;99.90;;;;;;5078810;28;20353;-79
2021/12/08 13:19:56;;;;;;;8.75;3.95;;;3.50;99.90;;;;;;5066132;28;20436;-79
2021/12/08 13:22:52;;;;;;;8.43;4.10;;;3.50;99.90;;;;;;5076937;28;20445;-79
2021/12/08 13:25:26;;;;;;;11.73;4.63;;;3.50;99.90;;;;;;5076005;28;20021;-79
2021/12/08 13:28:08;;;;;;;6.05;4.18;;;3.60;99.90;;;;;;5074981;28;20745;-79
2021/12/08 13:30:34;;;;;;;8.63;4.40;;;3.60;99.90;;;;;;5078820;28;20029;-79
2021/12/08 13:33:08;;;;;;;8.93;5.45;;;3.60;99.90;;;;;;5073119;28;20052;-79
2021/12/08 13:35:37;;;;;;;11.48;5.55;;;3.50;99.90;;;;;;5082712;28;20024;-79
2021/12/08 13:38:05;;;;;;;17.20;7.32;;;3.60;99.90;;;;;;5075165;28;20469;-79
2021/12/08 13:40:48;;;;;;;10.93;5.20;;;3.60;99.90;;;;;;5083589;28;20085;-79
2021/12/08 13:43:35;;;;;;;7.82;4.38;;;3.60;99.90;;;;;;5082291;28;20013;-79
2021/12/08 13:46:03;;;;;;;9.82;4.28;;;3.60;99.90;;;;;;5094514;28;20027;-79
2021/12/08 13:48:29;;;;;;;7.55;4.05;;;3.60;99.90;;;;;;5095020;28;20020;-79
2021/12/08 13:51:18;;;;;;;10.55;4.80;;;3.60;99.90;;;;;;5089320;28;20102;-79
2021/12/08 13:53:44;;;;;;;11.32;4.57;;;3.60;99.90;;;;;;5074869;28;20475;-79
2021/12/08 13:56:10;;;;;;;9.02;4.32;;;3.60;99.90;;;;;;5072479;28;20512;-79